Back to Top

Language: 

My Weather Underground Personal Weather Station Historical Data with Graphs...

Delerius Weather Station Historical Data
Daily Summary for April 16, 2017 Units:  English    Metric   Both
« Previous Day
Next Day »
Daily Weekly Monthly Yearly Custom
  High: Low: Average:
Temperature: 54.1 °F 40.5 °F 47.3 °F
Dew Point: 48.1 °F 34.5 °F 41.6 °F
Humidity: 95 % 67 % 81 %
Wind Speed: 13.0 mph 0.0 mph 7.1 mph
Wind Gust: 22.0 mph - -
Wind:- - West
Pressure: 30.15 in 30.04 in -
Precipitation: 0.09 in    
Historical Graphs
 
 
Tabular Data for April 16, 2017
Time Temperature Dew Point Pressure Wind Wind Speed Wind Gust Humidity Rainfall Rate (Hourly) solar Conditions
00:02 41.5 °F 34.9 °F 30.12 in WNW 3.0 mph 8.0 mph 77 % 0.00 in 0 W/m2
00:07 41.4 °F 35.0 °F 30.12 in WNW 4.0 mph 8.0 mph 78 % 0.00 in 0 W/m2
00:12 41.4 °F 35.0 °F 30.12 in WNW 4.0 mph 8.0 mph 78 % 0.00 in 0 W/m2
00:17 41.4 °F 35.0 °F 30.12 in WNW 3.0 mph 8.0 mph 78 % 0.00 in 0 W/m2
00:22 41.2 °F 34.8 °F 30.12 in WNW 3.0 mph 8.0 mph 78 % 0.00 in 0 W/m2
00:27 41.2 °F 34.8 °F 30.12 in WNW 4.0 mph 8.0 mph 78 % 0.00 in 0 W/m2
00:32 41.4 °F 35.0 °F 30.12 in WNW 4.0 mph 10.0 mph 78 % 0.00 in 0 W/m2
00:37 41.4 °F 35.0 °F 30.12 in WNW 3.0 mph 10.0 mph 78 % 0.00 in 0 W/m2
00:42 41.4 °F 35.0 °F 30.12 in WNW 1.0 mph 5.0 mph 78 % 0.00 in 0 W/m2
00:47 41.2 °F 34.8 °F 30.12 in Calm   1.0 mph 78 % 0.00 in 0 W/m2
00:52 40.8 °F 34.5 °F 30.12 in Calm   2.0 mph 78 % 0.00 in 0 W/m2
00:57 40.6 °F 34.6 °F 30.12 in West 1.0 mph 6.0 mph 79 % 0.00 in 0 W/m2
01:02 40.5 °F 34.8 °F 30.13 in West 2.0 mph 7.0 mph 80 % 0.00 in 0 W/m2
01:07 40.6 °F 35.0 °F 30.13 in West 2.0 mph 8.0 mph 80 % 0.00 in 0 W/m2
01:12 40.6 °F 35.0 °F 30.13 in West 2.0 mph 8.0 mph 80 % 0.00 in 0 W/m2
01:17 40.6 °F 35.0 °F 30.13 in West 1.0 mph 8.0 mph 80 % 0.00 in 0 W/m2
01:27 40.6 °F 35.3 °F 30.13 in WNW 3.0 mph 9.0 mph 81 % 0.00 in 0 W/m2
01:32 40.8 °F 35.4 °F 30.13 in WNW 5.0 mph 11.0 mph 81 % 0.00 in 0 W/m2
01:37 41.2 °F 35.5 °F 30.13 in WNW 5.0 mph 11.0 mph 80 % 0.00 in 0 W/m2
01:42 41.4 °F 35.7 °F 30.13 in WNW 4.0 mph 11.0 mph 80 % 0.00 in 0 W/m2
01:47 41.5 °F 35.5 °F 30.13 in WNW 5.0 mph 11.0 mph 79 % 0.00 in 0 W/m2
01:52 41.7 °F 35.7 °F 30.13 in WNW 5.0 mph 11.0 mph 79 % 0.00 in 0 W/m2
01:57 41.7 °F 35.7 °F 30.13 in WNW 5.0 mph 11.0 mph 79 % 0.00 in 0 W/m2
02:02 41.7 °F 35.7 °F 30.14 in WNW 4.0 mph 9.0 mph 79 % 0.00 in 0 W/m2
02:07 41.7 °F 35.4 °F 30.14 in WNW 3.0 mph 7.0 mph 78 % 0.00 in 0 W/m2
02:12 41.7 °F 35.4 °F 30.13 in WNW 3.0 mph 8.0 mph 78 % 0.00 in 0 W/m2
02:17 41.7 °F 35.4 °F 30.14 in WNW 4.0 mph 8.0 mph 78 % 0.00 in 0 W/m2
02:22 41.7 °F 35.4 °F 30.13 in WNW 4.0 mph 10.0 mph 78 % 0.00 in 0 W/m2
02:27 41.7 °F 35.4 °F 30.13 in WNW 5.0 mph 10.0 mph 78 % 0.00 in 0 W/m2
02:32 41.7 °F 35.7 °F 30.13 in WNW 6.0 mph 10.0 mph 79 % 0.00 in 0 W/m2
02:38 41.7 °F 35.4 °F 30.13 in WNW 5.0 mph 10.0 mph 78 % 0.00 in 0 W/m2
02:43 41.9 °F 35.5 °F 30.13 in WNW 5.0 mph 13.0 mph 78 % 0.00 in 0 W/m2
02:48 42.1 °F 35.7 °F 30.13 in WNW 8.0 mph 14.0 mph 78 % 0.00 in 0 W/m2
02:53 42.3 °F 35.9 °F 30.13 in WNW 8.0 mph 16.0 mph 78 % 0.00 in 0 W/m2
02:58 42.3 °F 35.9 °F 30.14 in WNW 8.0 mph 16.0 mph 78 % 0.00 in 0 W/m2
03:03 42.4 °F 35.7 °F 30.14 in WNW 8.0 mph 15.0 mph 77 % 0.00 in 0 W/m2
03:08 42.4 °F 35.7 °F 30.13 in WNW 7.0 mph 14.0 mph 77 % 0.00 in 0 W/m2
03:13 42.4 °F 35.7 °F 30.13 in WNW 6.0 mph 10.0 mph 77 % 0.00 in 0 W/m2
03:18 42.4 °F 35.7 °F 30.13 in WNW 5.0 mph 11.0 mph 77 % 0.00 in 0 W/m2
03:23 42.4 °F 35.7 °F 30.13 in NW 5.0 mph 13.0 mph 77 % 0.00 in 0 W/m2
03:28 42.4 °F 35.7 °F 30.13 in WNW 6.0 mph 13.0 mph 77 % 0.00 in 0 W/m2
03:33 42.6 °F 35.9 °F 30.13 in WNW 8.0 mph 13.0 mph 77 % 0.00 in 0 W/m2
03:38 42.6 °F 35.9 °F 30.13 in WNW 9.0 mph 19.0 mph 77 % 0.00 in 0 W/m2
03:43 42.6 °F 35.9 °F 30.12 in WNW 9.0 mph 19.0 mph 77 % 0.00 in 0 W/m2
03:48 42.8 °F 36.4 °F 30.13 in West 7.0 mph 12.0 mph 78 % 0.00 in 0 W/m2
03:58 42.8 °F 36.7 °F 30.13 in West 6.0 mph 12.0 mph 79 % 0.00 in 0 W/m2
04:03 42.8 °F 36.7 °F 30.13 in West 7.0 mph 12.0 mph 79 % 0.00 in 0 W/m2
04:08 42.8 °F 36.7 °F 30.13 in West 7.0 mph 15.0 mph 79 % 0.00 in 0 W/m2
04:13 42.8 °F 36.7 °F 30.13 in WNW 7.0 mph 15.0 mph 79 % 0.00 in 0 W/m2
04:18 43.0 °F 36.9 °F 30.13 in WNW 9.0 mph 13.0 mph 79 % 0.00 in 0 W/m2
04:23 43.0 °F 36.9 °F 30.13 in WNW 8.0 mph 13.0 mph 79 % 0.00 in 0 W/m2
04:28 43.0 °F 36.9 °F 30.13 in WNW 7.0 mph 12.0 mph 79 % 0.00 in 0 W/m2
04:33 43.0 °F 36.9 °F 30.13 in WNW 7.0 mph 12.0 mph 79 % 0.00 in 0 W/m2
04:38 43.0 °F 36.9 °F 30.13 in WNW 8.0 mph 14.0 mph 79 % 0.00 in 0 W/m2
04:43 43.0 °F 36.9 °F 30.13 in WNW 9.0 mph 14.0 mph 79 % 0.00 in 0 W/m2
04:48 43.0 °F 36.9 °F 30.13 in WNW 8.0 mph 13.0 mph 79 % 0.00 in 0 W/m2
04:53 43.0 °F 36.9 °F 30.13 in WNW 7.0 mph 15.0 mph 79 % 0.00 in 0 W/m2
04:58 43.0 °F 36.9 °F 30.13 in West 8.0 mph 15.0 mph 79 % 0.00 in 0 W/m2
05:03 43.2 °F 37.4 °F 30.13 in West 7.0 mph 14.0 mph 80 % 0.00 in 0 W/m2
05:08 43.2 °F 37.4 °F 30.13 in West 7.0 mph 14.0 mph 80 % 0.00 in 0 W/m2
05:14 43.2 °F 37.4 °F 30.13 in West 8.0 mph 15.0 mph 80 % 0.00 in 0 W/m2
05:19 43.2 °F 37.7 °F 30.13 in West 9.0 mph 15.0 mph 81 % 0.00 in 0 W/m2
05:24 43.2 °F 37.7 °F 30.13 in West 9.0 mph 19.0 mph 81 % 0.00 in 0 W/m2
05:29 43.2 °F 37.7 °F 30.13 in West 9.0 mph 19.0 mph 81 % 0.00 in 0 W/m2
05:34 43.2 °F 37.7 °F 30.13 in West 8.0 mph 14.0 mph 81 % 0.00 in 0 W/m2
05:35 43.0 °F 37.5 °F 30.13 in West 7.0 mph 12.0 mph 81 % 0.00 in 0 W/m2
05:40 43.0 °F 37.5 °F 30.13 in West 7.0 mph 13.0 mph 81 % 0.00 in 0 W/m2
05:45 43.0 °F 37.5 °F 30.13 in West 7.0 mph 14.0 mph 81 % 0.00 in 0 W/m2
05:50 43.0 °F 37.5 °F 30.13 in West 7.0 mph 14.0 mph 81 % 0.00 in 0 W/m2
05:55 43.0 °F 37.9 °F 30.14 in West 6.0 mph 11.0 mph 82 % 0.00 in 0 W/m2
06:00 42.8 °F 37.7 °F 30.14 in WNW 4.0 mph 11.0 mph 82 % 0.00 in 0 W/m2
06:05 42.8 °F 37.7 °F 30.14 in WNW 3.0 mph 8.0 mph 82 % 0.00 in 5 W/m2
06:11 42.6 °F 37.5 °F 30.14 in West 3.0 mph 7.0 mph 82 % 0.00 in 5 W/m2
06:16 42.6 °F 37.5 °F 30.14 in West 2.0 mph 7.0 mph 82 % 0.00 in 7 W/m2
06:21 42.6 °F 37.8 °F 30.14 in West 2.0 mph 6.0 mph 83 % 0.00 in 14 W/m2
06:26 42.6 °F 37.8 °F 30.14 in West 2.0 mph 6.0 mph 83 % 0.00 in 14 W/m2
06:31 42.6 °F 37.8 °F 30.14 in West 1.0 mph 6.0 mph 83 % 0.00 in 16 W/m2
06:36 42.6 °F 38.1 °F 30.14 in West 4.0 mph 13.0 mph 84 % 0.00 in 25 W/m2
06:41 42.8 °F 38.0 °F 30.14 in West 5.0 mph 13.0 mph 83 % 0.00 in 30 W/m2
06:46 43.0 °F 38.5 °F 30.14 in West 5.0 mph 10.0 mph 84 % 0.00 in 37 W/m2
06:51 43.0 °F 38.5 °F 30.14 in West 5.0 mph 10.0 mph 84 % 0.00 in 51 W/m2
06:56 43.2 °F 38.7 °F 30.14 in West 6.0 mph 11.0 mph 84 % 0.00 in 65 W/m2
07:01 43.3 °F 38.8 °F 30.15 in West 5.0 mph 11.0 mph 84 % 0.00 in 63 W/m2
07:06 43.3 °F 38.8 °F 30.15 in West 4.0 mph 8.0 mph 84 % 0.00 in 67 W/m2
07:11 43.5 °F 39.0 °F 30.15 in West 5.0 mph 9.0 mph 84 % 0.00 in 98 W/m2
07:16 43.7 °F 38.9 °F 30.15 in WNW 5.0 mph 10.0 mph 83 % 0.00 in 102 W/m2
07:17 43.7 °F 38.9 °F 30.15 in WNW 5.0 mph 10.0 mph 83 % 0.00 in 104 W/m2
07:22 43.9 °F 39.1 °F 30.15 in WNW 4.0 mph 10.0 mph 83 % 0.00 in 84 W/m2
07:27 44.1 °F 39.2 °F 30.15 in West 5.0 mph 10.0 mph 83 % 0.00 in 98 W/m2
07:32 44.1 °F 39.2 °F 30.14 in West 5.0 mph 9.0 mph 83 % 0.00 in 116 W/m2
07:37 44.2 °F 39.1 °F 30.15 in West 5.0 mph 9.0 mph 82 % 0.00 in 149 W/m2
07:42 44.4 °F 39.3 °F 30.15 in West 4.0 mph 9.0 mph 82 % 0.00 in 146 W/m2
07:47 44.6 °F 39.4 °F 30.15 in West 4.0 mph 9.0 mph 82 % 0.00 in 142 W/m2
07:52 44.8 °F 39.3 °F 30.15 in WNW 4.0 mph 9.0 mph 81 % 0.00 in 107 W/m2
07:57 45.0 °F 39.2 °F 30.15 in WNW 5.0 mph 9.0 mph 80 % 0.00 in 139 W/m2
08:02 45.0 °F 39.2 °F 30.15 in WNW 5.0 mph 10.0 mph 80 % 0.00 in 109 W/m2
08:07 45.1 °F 39.3 °F 30.15 in WNW 5.0 mph 11.0 mph 80 % 0.00 in 271 W/m2
08:12 45.7 °F 39.5 °F 30.15 in WNW 7.0 mph 16.0 mph 79 % 0.00 in 260 W/m2
08:17 46.2 °F 40.1 °F 30.15 in WNW 7.0 mph 16.0 mph 79 % 0.00 in 362 W/m2
08:22 46.8 °F 39.9 °F 30.15 in WNW 7.0 mph 15.0 mph 77 % 0.00 in 311 W/m2
08:27 47.1 °F 39.9 °F 30.15 in WNW 8.0 mph 15.0 mph 76 % 0.00 in 278 W/m2
08:32 47.3 °F 39.8 °F 30.15 in WNW 9.0 mph 18.0 mph 75 % 0.00 in 269 W/m2
08:37 47.5 °F 39.6 °F 30.15 in WNW 9.0 mph 18.0 mph 74 % 0.00 in 186 W/m2
08:42 47.7 °F 39.4 °F 30.15 in WNW 8.0 mph 16.0 mph 73 % 0.00 in 397 W/m2
08:47 47.8 °F 39.6 °F 30.15 in WNW 8.0 mph 16.0 mph 73 % 0.00 in 410 W/m2
08:52 48.0 °F 39.4 °F 30.15 in WNW 8.0 mph 19.0 mph 72 % 0.00 in 411 W/m2
08:57 48.6 °F 39.9 °F 30.15 in WNW 9.0 mph 19.0 mph 72 % 0.00 in 445 W/m2
09:02 48.9 °F 39.9 °F 30.15 in WNW 9.0 mph 20.0 mph 71 % 0.00 in 494 W/m2
09:07 49.5 °F 40.1 °F 30.15 in WNW 9.0 mph 20.0 mph 70 % 0.00 in 543 W/m2
09:12 49.6 °F 39.1 °F 30.15 in WNW 9.0 mph 18.0 mph 67 % 0.00 in 283 W/m2
09:17 49.5 °F 39.3 °F 30.15 in WNW 9.0 mph 18.0 mph 68 % 0.00 in 202 W/m2
09:22 49.3 °F 39.5 °F 30.15 in WNW 7.0 mph 13.0 mph 69 % 0.00 in 202 W/m2
09:27 49.3 °F 39.2 °F 30.15 in WNW 8.0 mph 13.0 mph 68 % 0.00 in 257 W/m2
09:32 48.9 °F 39.2 °F 30.15 in WNW 9.0 mph 16.0 mph 69 % 0.00 in 244 W/m2
09:37 48.9 °F 39.2 °F 30.15 in WNW 9.0 mph 16.0 mph 69 % 0.00 in 244 W/m2
09:42 48.9 °F 39.2 °F 30.15 in WNW 9.0 mph 19.0 mph 69 % 0.00 in 267 W/m2
09:47 48.9 °F 39.6 °F 30.15 in NW 8.0 mph 19.0 mph 70 % 0.00 in 197 W/m2
09:52 49.1 °F 39.4 °F 30.15 in WNW 8.0 mph 14.0 mph 69 % 0.00 in 216 W/m2
09:58 49.3 °F 39.5 °F 30.15 in WNW 8.0 mph 14.0 mph 69 % 0.00 in 353 W/m2
10:03 49.5 °F 39.3 °F 30.14 in WNW 8.0 mph 15.0 mph 68 % 0.00 in 183 W/m2
10:08 49.5 °F 39.7 °F 30.15 in WNW 8.0 mph 15.0 mph 69 % 0.00 in 146 W/m2
10:13 49.3 °F 39.9 °F 30.15 in West 9.0 mph 15.0 mph 70 % 0.00 in 135 W/m2
10:18 48.9 °F 40.6 °F 30.15 in West 10.0 mph 18.0 mph 73 % 0.00 in 109 W/m2
10:23 48.6 °F 41.0 °F 30.15 in West 8.0 mph 18.0 mph 75 % 0.00 in 176 W/m2
10:28 48.4 °F 41.5 °F 30.15 in WNW 7.0 mph 12.0 mph 77 % 0.00 in 221 W/m2
10:33 48.4 °F 41.5 °F 30.15 in WNW 7.0 mph 13.0 mph 77 % 0.00 in 225 W/m2
10:38 48.2 °F 41.3 °F 30.15 in West 8.0 mph 14.0 mph 77 % 0.00 in 232 W/m2
10:43 48.2 °F 41.3 °F 30.15 in West 9.0 mph 16.0 mph 77 % 0.00 in 221 W/m2
10:48 48.0 °F 41.2 °F 30.15 in WNW 10.0 mph 16.0 mph 77 % 0.00 in 230 W/m2
10:53 48.2 °F 41.0 °F 30.14 in WNW 8.0 mph 14.0 mph 76 % 0.00 in 287 W/m2
10:58 48.4 °F 41.5 °F 30.14 in WNW 6.0 mph 11.0 mph 77 % 0.00 in 267 W/m2
11:03 48.6 °F 41.3 °F 30.14 in West 6.0 mph 11.0 mph 76 % 0.00 in 269 W/m2
11:08 48.7 °F 41.5 °F 30.14 in West 7.0 mph 12.0 mph 76 % 0.00 in 309 W/m2
11:13 48.9 °F 41.3 °F 30.14 in West 7.0 mph 12.0 mph 75 % 0.00 in 292 W/m2
11:18 49.3 °F 41.7 °F 30.14 in West 7.0 mph 12.0 mph 75 % 0.00 in 287 W/m2
11:23 49.3 °F 41.7 °F 30.14 in West 8.0 mph 14.0 mph 75 % 0.00 in 197 W/m2
11:28 49.5 °F 41.5 °F 30.14 in WNW 8.0 mph 15.0 mph 74 % 0.00 in 155 W/m2
11:33 49.5 °F 41.9 °F 30.14 in WNW 8.0 mph 15.0 mph 75 % 0.00 in 264 W/m2
11:38 49.5 °F 41.9 °F 30.14 in West 7.0 mph 13.0 mph 75 % 0.00 in 332 W/m2
11:43 49.6 °F 42.0 °F 30.14 in West 8.0 mph 14.0 mph 75 % 0.00 in 345 W/m2
11:53 50.2 °F 42.9 °F 30.13 in West 9.0 mph 15.0 mph 76 % 0.00 in 371 W/m2
11:58 50.5 °F 42.9 °F 30.13 in West 9.0 mph 15.0 mph 75 % 0.00 in 267 W/m2
12:03 50.5 °F 42.6 °F 30.13 in West 9.0 mph 15.0 mph 74 % 0.00 in 155 W/m2
12:08 50.4 °F 42.4 °F 30.13 in West 8.0 mph 14.0 mph 74 % 0.00 in 163 W/m2
12:13 50.2 °F 42.6 °F 30.13 in West 8.0 mph 13.0 mph 75 % 0.00 in 243 W/m2
12:18 50.2 °F 43.2 °F 30.13 in West 8.0 mph 14.0 mph 77 % 0.00 in 144 W/m2
12:23 50.0 °F 43.1 °F 30.13 in WSW 8.0 mph 14.0 mph 77 % 0.00 in 100 W/m2
12:33 49.8 °F 43.2 °F 30.13 in West 9.0 mph 16.0 mph 78 % 0.00 in 462 W/m2
12:38 50.2 °F 43.2 °F 30.12 in West 10.0 mph 16.0 mph 77 % 0.00 in 258 W/m2
12:43 50.5 °F 43.6 °F 30.12 in West 10.0 mph 16.0 mph 77 % 0.00 in 294 W/m2
12:48 50.4 °F 43.4 °F 30.12 in West 9.0 mph 14.0 mph 77 % 0.00 in 214 W/m2
12:53 50.5 °F 43.6 °F 30.12 in WSW 8.0 mph 14.0 mph 77 % 0.00 in 457 W/m2
12:58 50.7 °F 43.8 °F 30.12 in West 9.0 mph 16.0 mph 77 % 0.00 in 148 W/m2
13:03 50.9 °F 43.9 °F 30.12 in West 10.0 mph 18.0 mph 77 % 0.00 in 264 W/m2
13:09 50.9 °F 43.3 °F 30.12 in West 10.0 mph 22.0 mph 75 % 0.00 in 285 W/m2
13:14 50.7 °F 43.1 °F 30.11 in West 12.0 mph 22.0 mph 75 % 0.00 in 339 W/m2
13:19 51.1 °F 43.4 °F 30.11 in West 11.0 mph 20.0 mph 75 % 0.00 in 276 W/m2
13:24 51.1 °F 43.4 °F 30.11 in West 9.0 mph 16.0 mph 75 % 0.00 in 190 W/m2
13:29 51.1 °F 43.1 °F 30.11 in WSW 8.0 mph 14.0 mph 74 % 0.00 in 229 W/m2
13:34 51.1 °F 43.1 °F 30.11 in WSW 8.0 mph 14.0 mph 74 % 0.00 in 255 W/m2
13:39 50.9 °F 42.9 °F 30.11 in WSW 9.0 mph 18.0 mph 74 % 0.00 in 250 W/m2
13:44 50.9 °F 43.3 °F 30.10 in WSW 9.0 mph 18.0 mph 75 % 0.00 in 287 W/m2
13:49 51.1 °F 45.1 °F 30.10 in WSW 8.0 mph 12.0 mph 80 % 0.00 in 306 W/m2
13:54 51.1 °F 44.5 °F 30.10 in WSW 8.0 mph 16.0 mph 78 % 0.00 in 339 W/m2
13:59 51.3 °F 44.6 °F 30.10 in WSW 9.0 mph 16.0 mph 78 % 0.00 in 193 W/m2
14:09 51.3 °F 44.3 °F 30.10 in WSW 9.0 mph 19.0 mph 77 % 0.00 in 218 W/m2
14:14 51.4 °F 44.5 °F 30.09 in WSW 8.0 mph 16.0 mph 77 % 0.00 in 258 W/m2
14:19 51.6 °F 44.3 °F 30.09 in WSW 8.0 mph 16.0 mph 76 % 0.00 in 207 W/m2
14:21 51.6 °F 44.3 °F 30.09 in WSW 9.0 mph 19.0 mph 76 % 0.00 in 197 W/m2
14:26 51.8 °F 44.5 °F 30.09 in WSW 9.0 mph 19.0 mph 76 % 0.00 in 162 W/m2
14:32 51.6 °F 45.3 °F 30.09 in WSW 9.0 mph 19.0 mph 79 % 0.00 in 162 W/m2
14:37 51.4 °F 45.5 °F 30.09 in WSW 9.0 mph 15.0 mph 80 % 0.00 in 162 W/m2
14:42 51.1 °F 45.5 °F 30.09 in WSW 8.0 mph 15.0 mph 81 % 0.00 in 178 W/m2
14:43 51.1 °F 45.5 °F 30.09 in WSW 9.0 mph 15.0 mph 81 % 0.00 in 179 W/m2
14:48 51.1 °F 45.8 °F 30.08 in WSW 7.0 mph 13.0 mph 82 % 0.00 in 158 W/m2
14:53 51.3 °F 46.0 °F 30.08 in West 6.0 mph 10.0 mph 82 % 0.00 in 234 W/m2
14:58 51.6 °F 46.3 °F 30.08 in West 5.0 mph 10.0 mph 82 % 0.00 in 216 W/m2
15:03 52.0 °F 46.0 °F 30.08 in West 7.0 mph 14.0 mph 80 % 0.00 in 192 W/m2
15:08 52.3 °F 46.0 °F 30.07 in West 9.0 mph 14.0 mph 79 % 0.00 in 241 W/m2
15:13 52.7 °F 46.4 °F 30.07 in West 9.0 mph 18.0 mph 79 % 0.00 in 243 W/m2
15:18 52.9 °F 45.9 °F 30.07 in West 11.0 mph 19.0 mph 77 % 0.00 in 225 W/m2
15:28 53.1 °F 46.0 °F 30.07 in West 12.0 mph 20.0 mph 77 % 0.00 in 290 W/m2
15:33 53.1 °F 46.0 °F 30.07 in West 11.0 mph 18.0 mph 77 % 0.00 in 271 W/m2
15:38 53.1 °F 46.0 °F 30.07 in West 11.0 mph 22.0 mph 77 % 0.00 in 294 W/m2
15:43 53.1 °F 46.0 °F 30.07 in West 10.0 mph 22.0 mph 77 % 0.00 in 200 W/m2
15:48 53.1 °F 46.4 °F 30.07 in West 9.0 mph 15.0 mph 78 % 0.00 in 183 W/m2
15:53 53.1 °F 46.7 °F 30.07 in West 9.0 mph 15.0 mph 79 % 0.00 in 174 W/m2
15:58 53.1 °F 46.7 °F 30.07 in West 9.0 mph 19.0 mph 79 % 0.00 in 130 W/m2
16:03 52.9 °F 46.5 °F 30.07 in West 11.0 mph 22.0 mph 79 % 0.00 in 121 W/m2
16:09 52.9 °F 46.5 °F 30.07 in West 11.0 mph 22.0 mph 79 % 0.00 in 102 W/m2
16:14 52.5 °F 46.5 °F 30.07 in West 10.0 mph 18.0 mph 80 % 0.00 in 113 W/m2
16:19 52.3 °F 46.7 °F 30.07 in West 9.0 mph 18.0 mph 81 % 0.00 in 102 W/m2
16:24 52.3 °F 46.7 °F 30.06 in West 9.0 mph 18.0 mph 81 % 0.00 in 163 W/m2
16:29 52.3 °F 47.0 °F 30.06 in West 9.0 mph 15.0 mph 82 % 0.00 in 329 W/m2
16:34 52.9 °F 47.9 °F 30.06 in West 9.0 mph 18.0 mph 83 % 0.00 in 264 W/m2
16:39 53.2 °F 47.9 °F 30.06 in WNW 11.0 mph 21.0 mph 82 % 0.00 in 403 W/m2
16:44 53.8 °F 48.1 °F 30.05 in WNW 12.0 mph 21.0 mph 81 % 0.00 in 577 W/m2
16:49 54.0 °F 47.6 °F 30.05 in West 12.0 mph 21.0 mph 79 % 0.00 in 202 W/m2
16:54 53.8 °F 47.1 °F 30.05 in West 11.0 mph 21.0 mph 78 % 0.00 in 276 W/m2
16:59 54.0 °F 47.6 °F 30.05 in West 11.0 mph 20.0 mph 79 % 0.00 in 378 W/m2
17:04 54.1 °F 47.4 °F 30.05 in West 13.0 mph 22.0 mph 78 % 0.00 in 200 W/m2
17:09 54.1 °F 47.4 °F 30.05 in West 13.0 mph 22.0 mph 78 % 0.00 in 176 W/m2
17:14 54.1 °F 47.4 °F 30.05 in WNW 11.0 mph 20.0 mph 78 % 0.00 in 116 W/m2
17:19 54.1 °F 47.4 °F 30.05 in WNW 10.0 mph 20.0 mph 78 % 0.00 in 149 W/m2
17:24 54.1 °F 47.8 °F 30.05 in WNW 9.0 mph 15.0 mph 79 % 0.00 in 113 W/m2
17:34 54.1 °F 47.4 °F 30.05 in WNW 7.0 mph 16.0 mph 78 % 0.00 in 113 W/m2
17:39 54.1 °F 47.4 °F 30.05 in WNW 9.0 mph 20.0 mph 78 % 0.00 in 156 W/m2
17:44 54.1 °F 47.8 °F 30.05 in WNW 8.0 mph 20.0 mph 79 % 0.00 in 190 W/m2
17:49 54.1 °F 47.4 °F 30.04 in WNW 7.0 mph 16.0 mph 78 % 0.00 in 120 W/m2
17:54 54.1 °F 47.1 °F 30.04 in WNW 9.0 mph 16.0 mph 77 % 0.00 in 105 W/m2
17:59 54.1 °F 47.1 °F 30.04 in WNW 9.0 mph 18.0 mph 77 % 0.00 in 121 W/m2
18:04 54.0 °F 47.3 °F 30.04 in WNW 11.0 mph 20.0 mph 78 % 0.00 in 118 W/m2
18:09 53.8 °F 47.1 °F 30.04 in WNW 12.0 mph 20.0 mph 78 % 0.00 in 111 W/m2
18:15 53.8 °F 47.1 °F 30.04 in WNW 10.0 mph 20.0 mph 78 % 0.00 in 118 W/m2
18:20 53.8 °F 47.1 °F 30.04 in WNW 10.0 mph 20.0 mph 78 % 0.00 in 76 W/m2
18:25 53.8 °F 47.4 °F 30.05 in WNW 12.0 mph 20.0 mph 79 % 0.00 in 60 W/m2
18:30 53.4 °F 47.4 °F 30.05 in WNW 13.0 mph 21.0 mph 80 % 0.00 in 86 W/m2
18:35 52.9 °F 47.5 °F 30.05 in WNW 13.0 mph 21.0 mph 82 % 0.00 in 76 W/m2
18:40 52.5 °F 47.5 °F 30.05 in WNW 11.0 mph 21.0 mph 83 % 0.00 in 69 W/m2
18:45 52.2 °F 47.5 °F 30.05 in WNW 9.0 mph 19.0 mph 84 % 0.00 in 65 W/m2
18:50 52.0 °F 47.6 °F 30.05 in WNW 9.0 mph 18.0 mph 85 % 0.00 in 79 W/m2
18:55 52.0 °F 47.9 °F 30.05 in WNW 9.0 mph 18.0 mph 86 % 0.00 in 60 W/m2
19:05 51.6 °F 47.9 °F 30.04 in WNW 7.0 mph 16.0 mph 87 % 0.00 in 79 W/m2
19:10 51.6 °F 47.9 °F 30.04 in WNW 8.0 mph 16.0 mph 87 % 0.00 in 63 W/m2
19:15 51.6 °F 47.9 °F 30.04 in WNW 8.0 mph 15.0 mph 87 % 0.00 in 49 W/m2
19:20 51.6 °F 47.6 °F 30.04 in WNW 9.0 mph 15.0 mph 86 % 0.00 in 44 W/m2
19:25 51.4 °F 47.4 °F 30.04 in WNW 11.0 mph 18.0 mph 86 % 0.00 in 26 W/m2
19:30 51.4 °F 47.1 °F 30.04 in WNW 11.0 mph 18.0 mph 85 % 0.00 in 26 W/m2
19:35 51.3 °F 46.9 °F 30.04 in WNW 10.0 mph 18.0 mph 85 % 0.00 in 26 W/m2
19:40 51.3 °F 46.9 °F 30.04 in WNW 10.0 mph 15.0 mph 85 % 0.00 in 28 W/m2
19:41 51.3 °F 46.9 °F 30.04 in WNW 9.0 mph 15.0 mph 85 % 0.00 in 26 W/m2
19:46 51.1 °F 46.7 °F 30.04 in WNW 9.0 mph 16.0 mph 85 % 0.00 in 14 W/m2
19:56 50.7 °F 46.7 °F 30.04 in WNW 8.0 mph 14.0 mph 86 % 0.00 in 7 W/m2
20:01 50.5 °F 46.5 °F 30.04 in WNW 9.0 mph 19.0 mph 86 % 0.00 in 5 W/m2
20:06 50.4 °F 46.3 °F 30.05 in WNW 8.0 mph 19.0 mph 86 % 0.00 in 0 W/m2
20:16 49.8 °F 46.1 °F 30.05 in WNW 8.0 mph 16.0 mph 87 % 0.00 in 0 W/m2
20:21 49.6 °F 45.9 °F 30.05 in WNW 9.0 mph 16.0 mph 87 % 0.00 in 0 W/m2
20:26 49.6 °F 45.6 °F 30.05 in WNW 8.0 mph 15.0 mph 86 % 0.00 in 0 W/m2
20:31 49.5 °F 45.8 °F 30.05 in WNW 8.0 mph 13.0 mph 87 % 0.00 in 0 W/m2
20:36 49.5 °F 45.8 °F 30.05 in WNW 7.0 mph 14.0 mph 87 % 0.00 in 0 W/m2
20:41 49.3 °F 45.6 °F 30.06 in WNW 7.0 mph 14.0 mph 87 % 0.00 in 0 W/m2
20:46 49.1 °F 45.4 °F 30.06 in WNW 7.0 mph 12.0 mph 87 % 0.00 in 0 W/m2
20:51 48.9 °F 45.2 °F 30.06 in WNW 6.0 mph 11.0 mph 87 % 0.00 in 0 W/m2
20:57 48.9 °F 45.5 °F 30.06 in WNW 6.0 mph 11.0 mph 88 % 0.00 in 0 W/m2
21:02 48.9 °F 45.5 °F 30.06 in WNW 7.0 mph 13.0 mph 88 % 0.00 in 0 W/m2
21:07 48.9 °F 45.5 °F 30.07 in NW 7.0 mph 13.0 mph 88 % 0.00 in 0 W/m2
21:12 48.9 °F 45.5 °F 30.07 in NW 7.0 mph 13.0 mph 88 % 0.01 in 0 W/m2
21:17 48.7 °F 45.6 °F 30.07 in NNW 6.0 mph 13.0 mph 89 % 0.02 in 0 W/m2
21:22 48.6 °F 45.8 °F 30.07 in NNW 5.0 mph 12.0 mph 90 % 0.02 in 0 W/m2
21:27 48.4 °F 45.6 °F 30.07 in NNW 5.0 mph 10.0 mph 90 % 0.02 in 0 W/m2
21:32 48.0 °F 45.5 °F 30.08 in North 5.0 mph 10.0 mph 91 % 0.02 in 0 W/m2
21:37 47.8 °F 45.3 °F 30.08 in North 5.0 mph 9.0 mph 91 % 0.02 in 0 W/m2
21:42 47.7 °F 45.2 °F 30.08 in North 4.0 mph 8.0 mph 91 % 0.03 in 0 W/m2
21:47 47.5 °F 45.3 °F 30.08 in NNW 4.0 mph 8.0 mph 92 % 0.03 in 0 W/m2
21:52 47.5 °F 45.0 °F 30.08 in NNW 4.0 mph 8.0 mph 91 % 0.03 in 0 W/m2
21:57 47.1 °F 44.9 °F 30.08 in North 5.0 mph 10.0 mph 92 % 0.03 in 0 W/m2
22:02 46.9 °F 44.7 °F 30.09 in NNE 6.0 mph 10.0 mph 92 % 0.04 in 0 W/m2
22:07 46.6 °F 44.4 °F 30.09 in NNE 6.0 mph 10.0 mph 92 % 0.05 in 0 W/m2
22:12 46.4 °F 44.2 °F 30.09 in NNE 5.0 mph 9.0 mph 92 % 0.04 in 0 W/m2
22:17 46.2 °F 44.3 °F 30.09 in North 5.0 mph 9.0 mph 93 % 0.04 in 0 W/m2
22:22 46.0 °F 44.1 °F 30.09 in North 5.0 mph 9.0 mph 93 % 0.03 in 0 W/m2
22:27 45.7 °F 43.8 °F 30.10 in North 6.0 mph 12.0 mph 93 % 0.04 in 0 W/m2
22:32 45.5 °F 43.6 °F 30.10 in North 7.0 mph 14.0 mph 93 % 0.04 in 0 W/m2
22:37 45.1 °F 43.2 °F 30.10 in North 7.0 mph 14.0 mph 93 % 0.04 in 0 W/m2
22:42 45.1 °F 43.2 °F 30.10 in North 5.0 mph 11.0 mph 93 % 0.04 in 0 W/m2
22:47 45.0 °F 43.3 °F 30.10 in North 4.0 mph 9.0 mph 94 % 0.05 in 0 W/m2
22:49 45.0 °F 43.3 °F 30.10 in NNE 4.0 mph 9.0 mph 94 % 0.05 in 0 W/m2
22:54 44.8 °F 43.2 °F 30.10 in NNE 5.0 mph 12.0 mph 94 % 0.05 in 0 W/m2
23:04 44.4 °F 42.8 °F 30.10 in NNE 5.0 mph 11.0 mph 94 % 0.04 in 0 W/m2
23:09 44.2 °F 42.6 °F 30.11 in NNE 6.0 mph 11.0 mph 94 % 0.03 in 0 W/m2
23:14 44.1 °F 42.4 °F 30.11 in NNE 6.0 mph 12.0 mph 94 % 0.02 in 0 W/m2
23:19 43.9 °F 42.3 °F 30.11 in NNE 6.0 mph 12.0 mph 94 % 0.02 in 0 W/m2
23:24 43.7 °F 42.1 °F 30.11 in NNE 6.0 mph 12.0 mph 94 % 0.02 in 0 W/m2
23:29 43.3 °F 41.7 °F 30.11 in NE 6.0 mph 12.0 mph 94 % 0.02 in 0 W/m2
23:34 43.3 °F 41.7 °F 30.11 in NE 6.0 mph 10.0 mph 94 % 0.02 in 0 W/m2
23:39 43.2 °F 41.6 °F 30.11 in NE 6.0 mph 13.0 mph 94 % 0.02 in 0 W/m2
23:44 43.2 °F 41.6 °F 30.12 in NE 5.0 mph 13.0 mph 94 % 0.01 in 0 W/m2
23:49 43.0 °F 41.6 °F 30.12 in NE 3.0 mph 8.0 mph 95 % 0.01 in 0 W/m2
23:54 43.0 °F 41.6 °F 30.12 in NE 3.0 mph 8.0 mph 95 % 0.01 in 0 W/m2
23:59 43.0 °F 41.6 °F 30.12 in NE 3.0 mph 7.0 mph 95 % 0.01 in 0 W/m2
Delerius-Weather
Compliments of Weather Underground - 2.25 mb

Data updates at regular intervals.